Goma

About
Name: Goma
Identifier:  GOM/FZNA
Local Time:  20. Aug 09:08 CAT
Location
Flights per Day
3 flights
Distance: 858km (533mi)
Punctuality
77% (0 flights per day delayed)
Delay Average: 67 minutes
Current Weather
 16 C (Humidity: 67%)
  8kt (14km/h / 9mph) from 50°
  Scattered clouds at 1,600 feet (487 meter)
  4km (2 mi.)
No significant changes expected

 Mist
 METAR FZNA 200500Z 05008KT 4000 BR SCT016 16/10 Q1021 NOSIG

Current Flights

Departures
Number Departure To Airline
Arrivals

Current Delays

Departures
N/A
Arrivals
N/A

Destinations

Top Destinations
Airport Flights
per week
Seats
per week
  Entebbe (EBB) 7 1,053 1 150
  Addis Ababa (ADD) 1 91 0 13
  Kinshasa (FIH) 0 149 0 21
  Kisangani (FKI) 0 63 0 9

Airlines & Planes

Top Airlines
Airline Flights
per Day
Seats
per Day
  Ethiopian Airlines 1 172
Congo Airways 0 21
Top Plane Types
Model Flights Seats
Boeing B737-700 0.8/day 90/day 90.46666666666667
Boeing B737-800 0.6/day 82/day 82.13333333333334
Airbus A320 0.1/day 21/day 21.333333333333332